createdAt,value
2022-12-26T00:01:08.033Z,95545.63
2022-12-26T00:03:35.851Z,95541.56
2022-12-26T00:06:03.824Z,95547.78
2022-12-26T00:08:32.843Z,95548.34
2022-12-26T00:11:00.486Z,95548.88
2022-12-26T00:13:38.208Z,95545.91
2022-12-26T00:16:09.738Z,95554.25
2022-12-26T00:18:37.684Z,95550.22
2022-12-26T00:21:05.767Z,95544.22
2022-12-26T00:23:35.433Z,95550.44
2022-12-26T00:26:04.935Z,95561.78
2022-12-26T00:28:32.797Z,95544.22
2022-12-26T00:31:04.007Z,95551.22
2022-12-26T00:33:31.688Z,95555.78
2022-12-26T00:36:02.247Z,95561.19
2022-12-26T00:38:29.939Z,95560.63
2022-12-26T00:40:58.912Z,95564.06
2022-12-26T00:43:26.635Z,95556.25
2022-12-26T00:45:54.657Z,95552.91
2022-12-26T00:48:22.444Z,95560.97
2022-12-26T00:50:50.085Z,95553.63
2022-12-26T00:53:18.135Z,95557.84
2022-12-26T00:55:45.881Z,95557.44
2022-12-26T00:58:14.908Z,95564.16
2022-12-26T01:00:42.725Z,95567.88
2022-12-26T01:03:11.785Z,95569.72
2022-12-26T01:05:42.361Z,95566.25
2022-12-26T01:08:20.509Z,95571.34
2022-12-26T01:10:51.621Z,95570.91
2022-12-26T01:13:20.655Z,95574.44
2022-12-26T01:15:49.958Z,95571.81
2022-12-26T01:18:17.645Z,95580.34
2022-12-26T01:20:45.296Z,95582.91
2022-12-26T01:23:12.959Z,95589.66
2022-12-26T01:26:15.314Z,95585.25
2022-12-26T01:28:29.858Z,95582.41
2022-12-26T01:31:02.298Z,95594.53
2022-12-26T01:33:29.973Z,95595.59
2022-12-26T01:35:57.913Z,95594.66
2022-12-26T01:38:25.932Z,95594.78
2022-12-26T01:41:13.564Z,95597.50
2022-12-26T01:43:55.679Z,95599.81
2022-12-26T01:46:30.105Z,95607.38
2022-12-26T01:49:01.899Z,95604.03
2022-12-26T01:51:32.754Z,95610.28
2022-12-26T01:54:39.529Z,95609.63
2022-12-26T01:56:51.988Z,95613.91
2022-12-26T01:59:24.413Z,95622.84
2022-12-26T02:01:54.835Z,95618.19
2022-12-26T02:04:45.317Z,95622.00
2022-12-26T02:07:13.202Z,95624.44
2022-12-26T02:09:41.259Z,95620.34
2022-12-26T02:12:35.986Z,95626.78
2022-12-26T02:15:09.604Z,95632.38
2022-12-26T02:17:38.366Z,95624.81
2022-12-26T02:20:16.537Z,95620.41
2022-12-26T02:23:28.857Z,95612.03
2022-12-26T02:26:33.974Z,95612.72
2022-12-26T02:29:35.898Z,95615.56
2022-12-26T02:32:13.094Z,95611.56
2022-12-26T02:34:51.999Z,95615.63
2022-12-26T02:37:30.029Z,95616.00
2022-12-26T02:40:13.431Z,95614.25
2022-12-26T02:42:52.886Z,95613.38
2022-12-26T02:45:47.189Z,95613.56
2022-12-26T02:48:24.387Z,95612.81
2022-12-26T02:51:20.530Z,95597.75
2022-12-26T02:54:17.315Z,95599.50
2022-12-26T02:57:12.306Z,95584.50
2022-12-26T03:00:07.729Z,95570.97
2022-12-26T03:02:58.587Z,95570.03
2022-12-26T03:06:03.963Z,95558.56
2022-12-26T03:08:54.070Z,95565.63
2022-12-26T03:11:41.565Z,95560.00
2022-12-26T03:14:15.991Z,95563.59
2022-12-26T03:17:05.042Z,95558.22
2022-12-26T03:19:34.236Z,95551.47
2022-12-26T03:22:25.714Z,95558.25
2022-12-26T03:25:08.980Z,95561.78
2022-12-26T03:27:36.731Z,95566.38
2022-12-26T03:30:37.848Z,95566.91
2022-12-26T03:33:05.881Z,95570.47
2022-12-26T03:35:34.157Z,95566.69
2022-12-26T03:38:08.576Z,95569.66
2022-12-26T03:41:10.902Z,95570.47
2022-12-26T03:44:06.835Z,95557.22
2022-12-26T03:47:01.377Z,95570.97
2022-12-26T03:49:49.326Z,95558.25
2022-12-26T03:52:42.915Z,95567.19
2022-12-26T03:55:36.747Z,95564.16
2022-12-26T03:58:28.610Z,95571.19
2022-12-26T04:01:16.132Z,95560.63
2022-12-26T04:04:00.073Z,95564.94
2022-12-26T04:06:48.871Z,95567.09
2022-12-26T04:09:41.432Z,95564.91
2022-12-26T04:12:34.460Z,95566.53
2022-12-26T04:15:33.246Z,95561.72
2022-12-26T04:18:21.740Z,95577.44
2022-12-26T04:20:54.612Z,95570.41
2022-12-26T04:23:46.161Z,95571.78
2022-12-26T04:26:36.499Z,95590.16
2022-12-26T04:29:23.468Z,95593.38
2022-12-26T04:32:17.380Z,95601.75
2022-12-26T04:35:10.309Z,95594.75
2022-12-26T04:38:01.300Z,95591.22
2022-12-26T04:40:52.755Z,95592.56
2022-12-26T04:43:49.287Z,95586.06
2022-12-26T04:46:22.694Z,95589.00
2022-12-26T04:49:10.889Z,95587.91
2022-12-26T04:51:38.701Z,95594.06
2022-12-26T04:54:07.495Z,95595.38
2022-12-26T04:56:35.476Z,95599.66
2022-12-26T04:59:03.246Z,95592.63
2022-12-26T05:01:49.943Z,95595.28
2022-12-26T05:04:36.590Z,95594.47
2022-12-26T05:07:24.465Z,95609.00
2022-12-26T05:09:54.504Z,95602.84
2022-12-26T05:12:22.411Z,95598.53
2022-12-26T05:14:50.078Z,95590.38
2022-12-26T05:17:36.660Z,95603.03
2022-12-26T05:20:22.454Z,95605.97
2022-12-26T05:23:07.567Z,95610.31
2022-12-26T05:25:54.511Z,95612.69
2022-12-26T05:28:40.634Z,95606.22
2022-12-26T05:31:09.129Z,95614.63
2022-12-26T05:33:55.829Z,95624.59
2022-12-26T05:36:26.902Z,95627.56
2022-12-26T05:38:56.093Z,95627.09
2022-12-26T05:41:24.359Z,95633.81
2022-12-26T05:43:52.413Z,95630.03
2022-12-26T05:46:20.510Z,95624.09
2022-12-26T05:48:49.650Z,95627.03
2022-12-26T05:51:17.439Z,95638.13
2022-12-26T05:53:45.184Z,95634.63
2022-12-26T05:56:14.510Z,95631.38
2022-12-26T05:58:42.916Z,95641.09
2022-12-26T06:01:12.985Z,95643.03
2022-12-26T06:03:43.256Z,95643.78
2022-12-26T06:06:12.453Z,95633.81
2022-12-26T06:08:40.869Z,95640.78
2022-12-26T06:11:11.821Z,95642.91
2022-12-26T06:13:40.648Z,95636.97
2022-12-26T06:16:10.737Z,95635.84
2022-12-26T06:18:38.560Z,95642.00
2022-12-26T06:21:07.323Z,95633.91
2022-12-26T06:23:36.916Z,95633.03
2022-12-26T06:26:05.299Z,95634.41
2022-12-26T06:28:34.675Z,95634.16
2022-12-26T06:31:06.327Z,95631.41
2022-12-26T06:33:34.076Z,95634.91
2022-12-26T06:36:06.249Z,95630.91
2022-12-26T06:38:34.075Z,95634.16
2022-12-26T06:41:05.210Z,95629.09
2022-12-26T06:43:32.903Z,95622.69
2022-12-26T06:46:02.299Z,95616.81
2022-12-26T06:48:30.700Z,95606.31
2022-12-26T06:50:58.715Z,95593.91
2022-12-26T06:53:26.480Z,95594.38
2022-12-26T06:55:54.169Z,95601.22
2022-12-26T06:58:23.241Z,95607.25
2022-12-26T07:00:50.902Z,95594.84
2022-12-26T07:03:18.546Z,95598.66
2022-12-26T07:05:46.191Z,95603.81
2022-12-26T07:08:13.832Z,95609.28
2022-12-26T07:10:41.515Z,95609.59
2022-12-26T07:13:09.156Z,95610.97
2022-12-26T07:15:38.230Z,95605.84
2022-12-26T07:18:05.900Z,95606.38
2022-12-26T07:20:33.561Z,95597.22
2022-12-26T07:23:01.187Z,95589.91
2022-12-26T07:25:28.830Z,95590.44
2022-12-26T07:27:56.511Z,95584.78
2022-12-26T07:30:24.718Z,95603.69
2022-12-26T07:32:53.781Z,95605.53
2022-12-26T07:35:21.525Z,95610.13
2022-12-26T07:37:49.249Z,95607.94
2022-12-26T07:40:16.949Z,95600.97
2022-12-26T07:42:44.614Z,95612.84
2022-12-26T07:45:12.285Z,95611.50
2022-12-26T07:47:39.986Z,95619.59
2022-12-26T07:50:10.154Z,95617.16
2022-12-26T07:52:38.190Z,95618.25
2022-12-26T07:55:06.536Z,95627.44
2022-12-26T07:57:49.889Z,95619.88
2022-12-26T08:00:18.989Z,95627.22
2022-12-26T08:02:48.928Z,95630.72
2022-12-26T08:05:20.795Z,95628.56
2022-12-26T08:26:20.489Z,95617.91
2022-12-26T08:28:48.243Z,95618.97
2022-12-26T08:31:16.317Z,95612.50
2022-12-26T08:33:44.043Z,95609.53
2022-12-26T08:36:13.905Z,95606.00
2022-12-26T08:38:42.001Z,95604.94
2022-12-26T08:41:10.293Z,95607.63
2022-12-26T08:44:16.493Z,95609.81
2022-12-26T08:46:27.282Z,95608.16
2022-12-26T08:48:55.001Z,95601.34
2022-12-26T08:51:25.498Z,95601.53
2022-12-26T08:53:55.411Z,95598.78
2022-12-26T08:56:25.250Z,95597.88
2022-12-26T08:58:54.771Z,95599.41
2022-12-26T09:01:24.152Z,95597.97
2022-12-26T09:03:53.949Z,95591.44
2022-12-26T09:06:21.773Z,95594.34
2022-12-26T09:08:49.785Z,95594.88
2022-12-26T09:11:21.262Z,95586.88
2022-12-26T09:13:49.870Z,95590.34
2022-12-26T09:16:21.364Z,95580.50
2022-12-26T09:18:50.365Z,95585.56
2022-12-26T09:21:18.090Z,95576.72
2022-12-26T09:23:45.904Z,95582.78
2022-12-26T09:26:15.693Z,95575.53
2022-12-26T09:28:43.962Z,95577.09
2022-12-26T09:31:14.043Z,95579.88
2022-12-26T09:33:43.696Z,95581.88
2022-12-26T09:36:15.179Z,95574.84
2022-12-26T09:38:43.965Z,95581.84
2022-12-26T09:41:35.618Z,95571.13
2022-12-26T09:44:08.713Z,95574.28
2022-12-26T09:46:44.563Z,95574.34
2022-12-26T09:49:20.166Z,95582.41
2022-12-26T09:51:50.651Z,95575.94
2022-12-26T09:54:23.122Z,95580.31
2022-12-26T09:57:02.251Z,95582.91
2022-12-26T09:59:35.649Z,95576.06
2022-12-26T10:02:03.524Z,95588.78
2022-12-26T10:04:32.744Z,95579.72
2022-12-26T10:07:11.618Z,95579.19
2022-12-26T10:09:55.964Z,95577.94
2022-12-26T10:12:40.055Z,95567.22
2022-12-26T10:15:20.223Z,95559.25
2022-12-26T10:17:53.726Z,95566.06
2022-12-26T10:20:34.298Z,95554.53
2022-12-26T10:23:31.112Z,95545.09
2022-12-26T10:26:05.603Z,95547.41
2022-12-26T10:28:37.743Z,95545.28
2022-12-26T10:31:10.985Z,95545.47
2022-12-26T10:33:46.646Z,95544.03
2022-12-26T10:36:32.850Z,95532.19
2022-12-26T10:39:03.385Z,95529.34
2022-12-26T10:41:38.962Z,95536.22
2022-12-26T10:44:06.593Z,95530.28
2022-12-26T10:46:54.390Z,95521.16
2022-12-26T10:49:25.257Z,95530.44
2022-12-26T10:51:56.499Z,95536.59
2022-12-26T10:54:24.908Z,95540.78
2022-12-26T10:56:54.323Z,95544.91
2022-12-26T10:59:35.248Z,95544.41
2022-12-26T11:02:15.246Z,95532.97
2022-12-26T11:07:53.442Z,95531.31
2022-12-26T11:10:24.408Z,95540.75
2022-12-26T11:12:54.272Z,95540.50
2022-12-26T11:15:27.909Z,95530.97
2022-12-26T11:18:07.643Z,95532.50
2022-12-26T11:20:35.701Z,95537.19
2022-12-26T11:23:25.627Z,95533.91
2022-12-26T11:25:55.063Z,95538.44
2022-12-26T11:28:29.228Z,95534.81
2022-12-26T11:30:57.588Z,95536.38
2022-12-26T11:33:29.194Z,95542.97
2022-12-26T11:36:09.624Z,95545.19
2022-12-26T11:38:49.084Z,95542.50
2022-12-26T11:41:39.612Z,95544.78
2022-12-26T11:44:17.538Z,95544.13
2022-12-26T11:46:49.466Z,95549.16
2022-12-26T11:49:21.426Z,95547.34
2022-12-26T11:51:58.523Z,95548.28
2022-12-26T11:54:34.852Z,95554.66
2022-12-26T11:57:13.836Z,95559.38
2022-12-26T11:59:41.681Z,95540.56
2022-12-26T12:02:25.501Z,95555.22
2022-12-26T12:04:56.592Z,95560.06
2022-12-26T12:07:42.723Z,95571.59
2022-12-26T12:10:47.880Z,95573.84
2022-12-26T12:13:24.501Z,95579.19
2022-12-26T12:15:59.110Z,95588.59
2022-12-26T12:18:37.391Z,95588.09
2022-12-26T12:21:16.999Z,95617.19
2022-12-26T12:23:58.219Z,95612.88
2022-12-26T12:26:32.395Z,95638.69
2022-12-26T12:29:17.313Z,95637.28
2022-12-26T12:32:00.037Z,95639.94
2022-12-26T12:34:38.935Z,95637.13
2022-12-26T12:37:25.455Z,95655.03
2022-12-26T12:40:03.635Z,95645.66
2022-12-26T12:42:45.877Z,95667.03
2022-12-26T12:45:27.089Z,95666.00
2022-12-26T12:48:12.017Z,95686.78
2022-12-26T12:50:46.316Z,95687.13
2022-12-26T12:53:23.803Z,95700.47
2022-12-26T12:56:04.464Z,95707.81
2022-12-26T12:58:39.464Z,95713.59
2022-12-26T13:01:13.822Z,95736.69
2022-12-26T13:03:48.893Z,95730.78
2022-12-26T13:06:21.949Z,95748.44
2022-12-26T13:08:54.212Z,95756.03
2022-12-26T13:11:26.578Z,95751.22
2022-12-26T13:14:00.245Z,95757.47
2022-12-26T13:16:32.774Z,95743.91
2022-12-26T13:19:03.780Z,95752.84
2022-12-26T13:21:36.528Z,95745.84
2022-12-26T13:24:24.082Z,95739.06
2022-12-26T13:26:58.310Z,95752.91
2022-12-26T13:29:36.994Z,95747.53
2022-12-26T13:32:14.256Z,95757.03
2022-12-26T13:34:44.392Z,95758.66
2022-12-26T13:37:59.811Z,95765.97
2022-12-26T13:40:32.006Z,95772.19
2022-12-26T13:43:25.443Z,95771.66
2022-12-26T13:45:58.190Z,95775.22
2022-12-26T13:48:55.335Z,95784.97
2022-12-26T13:51:56.701Z,95767.91
2022-12-26T13:54:27.236Z,95770.59
2022-12-26T13:57:15.876Z,95782.25
2022-12-26T13:59:55.353Z,95774.97
2022-12-26T14:03:17.838Z,95777.69
2022-12-26T14:05:48.534Z,95777.41
2022-12-26T14:08:29.563Z,95776.31
2022-12-26T14:11:07.885Z,95788.25
2022-12-26T14:14:05.956Z,95788.25
2022-12-26T14:16:42.851Z,95785.25
2022-12-26T14:19:21.093Z,95801.78
2022-12-26T14:21:58.490Z,95808.28
2022-12-26T14:24:32.875Z,95814.53
2022-12-26T14:27:28.441Z,95815.59
2022-12-26T14:30:09.847Z,95817.22
2022-12-26T14:32:47.990Z,95825.06
2022-12-26T14:35:29.523Z,95828.03
2022-12-26T14:38:07.602Z,95831.00
2022-12-26T14:40:38.405Z,95820.16
2022-12-26T14:43:31.618Z,95816.09
2022-12-26T14:46:00.024Z,95830.72
2022-12-26T14:48:55.510Z,95821.25
2022-12-26T14:51:40.114Z,95830.44
2022-12-26T14:54:35.575Z,95832.31
2022-12-26T14:57:42.163Z,95843.69
2022-12-26T15:00:32.521Z,95839.84
2022-12-26T15:03:45.755Z,95832.00
2022-12-26T15:06:59.343Z,95834.75
2022-12-26T15:10:08.526Z,95830.66
2022-12-26T15:13:07.498Z,95824.97
2022-12-26T15:15:46.851Z,95823.34
2022-12-26T15:18:52.114Z,95822.25
2022-12-26T15:22:01.166Z,95822.25
2022-12-26T15:25:22.067Z,95810.03
2022-12-26T15:28:15.705Z,95817.34
2022-12-26T15:31:05.874Z,95813.03
2022-12-26T15:33:40.543Z,95807.63
2022-12-26T15:36:21.357Z,95818.41
2022-12-26T15:38:55.775Z,95811.91
2022-12-26T15:41:36.610Z,95817.56
2022-12-26T15:44:21.125Z,95826.25
2022-12-26T15:46:58.262Z,95821.63
2022-12-26T15:49:46.330Z,95820.25
2022-12-26T15:52:25.934Z,95809.16
2022-12-26T15:55:26.549Z,95825.94
2022-12-26T15:58:02.056Z,95822.38
2022-12-26T16:00:31.967Z,95821.31
2022-12-26T16:03:20.713Z,95825.34
2022-12-26T16:06:01.105Z,95807.75
2022-12-26T16:08:59.441Z,95825.84
2022-12-26T16:11:32.037Z,95831.78
2022-12-26T16:14:03.889Z,95826.91
2022-12-26T16:16:34.729Z,95824.19
2022-12-26T16:19:20.693Z,95816.59
2022-12-26T16:22:07.742Z,95803.91
2022-12-26T16:24:37.894Z,95814.19
2022-12-26T16:27:08.747Z,95817.97
2022-12-26T16:29:47.435Z,95813.09
2022-12-26T16:32:20.118Z,95823.34
2022-12-26T16:34:49.254Z,95806.84
2022-12-26T16:37:20.937Z,95798.72
2022-12-26T16:40:18.083Z,95794.38
2022-12-26T16:42:55.819Z,95777.63
2022-12-26T16:45:27.070Z,95801.44
2022-12-26T16:47:56.783Z,95800.59
2022-12-26T16:50:26.515Z,95804.38
2022-12-26T16:53:11.012Z,95808.72
2022-12-26T16:55:45.500Z,95803.31
2022-12-26T16:58:21.440Z,95798.72
2022-12-26T17:01:04.546Z,95794.91
2022-12-26T17:03:40.377Z,95756.00
2022-12-26T17:06:12.468Z,95752.72
2022-12-26T17:08:46.620Z,95744.88
2022-12-26T17:11:15.359Z,95748.09
2022-12-26T17:13:51.613Z,95743.47
2022-12-26T17:16:24.719Z,95772.13
2022-12-26T17:18:54.547Z,95751.84
2022-12-26T17:21:30.717Z,95758.63
2022-12-26T17:24:22.064Z,95762.66
2022-12-26T17:26:54.829Z,95778.91
2022-12-26T17:29:48.742Z,95775.13
2022-12-26T17:32:26.705Z,95756.47
2022-12-26T17:34:55.062Z,95779.97
2022-12-26T17:37:26.181Z,95779.16
2022-12-26T17:40:02.570Z,95784.06
2022-12-26T17:42:32.211Z,95790.53
2022-12-26T17:45:00.124Z,95791.66
2022-12-26T17:47:30.371Z,95785.44
2022-12-26T17:49:58.473Z,95791.34
2022-12-26T17:52:29.333Z,95798.13
2022-12-26T17:54:58.635Z,95793.28
2022-12-26T17:57:29.471Z,95787.06
2022-12-26T17:59:58.146Z,95797.88
2022-12-26T18:02:26.325Z,95770.03
2022-12-26T18:04:55.981Z,95783.28
2022-12-26T18:07:30.840Z,95775.44
2022-12-26T18:09:59.698Z,95789.50
2022-12-26T18:12:27.621Z,95802.19
2022-12-26T18:15:01.320Z,95792.19
2022-12-26T18:17:32.741Z,95785.16
2022-12-26T18:20:02.344Z,95793.84
2022-12-26T18:22:30.257Z,95803.56
2022-12-26T18:24:58.280Z,95801.72
2022-12-26T18:27:30.462Z,95796.06
2022-12-26T18:29:58.298Z,95801.72
2022-12-26T18:32:28.645Z,95808.19
2022-12-26T18:34:57.098Z,95792.50
2022-12-26T18:37:28.886Z,95775.50
2022-12-26T18:39:56.744Z,95764.13
2022-12-26T18:42:25.297Z,95802.50
2022-12-26T18:44:53.386Z,95801.69
2022-12-26T18:47:22.135Z,95810.59
2022-12-26T18:49:50.416Z,95811.69
2022-12-26T18:52:18.404Z,95813.84
2022-12-26T18:54:47.619Z,95808.47
2022-12-26T18:57:19.494Z,95813.91
2022-12-26T18:59:48.540Z,95819.53
2022-12-26T19:02:18.436Z,95812.78
2022-12-26T19:04:48.321Z,95812.25
2022-12-26T19:07:18.091Z,95795.25
2022-12-26T19:09:48.590Z,95817.91
2022-12-26T19:12:17.420Z,95810.59
2022-12-26T19:14:46.104Z,95800.34
2022-12-26T19:17:14.581Z,95807.34
2022-12-26T19:19:42.444Z,95814.34
2022-12-26T19:22:11.028Z,95805.47
2022-12-26T19:24:39.135Z,95793.56
2022-12-26T19:27:08.342Z,95783.06
2022-12-26T19:29:36.284Z,95799.22
2022-12-26T19:32:04.136Z,95797.34
2022-12-26T19:34:31.886Z,95787.06
2022-12-26T19:36:59.727Z,95791.59
2022-12-26T19:39:27.621Z,95795.91
2022-12-26T19:41:55.368Z,95799.22
2022-12-26T19:44:24.534Z,95813.28
2022-12-26T19:47:10.917Z,95809.22
2022-12-26T19:49:40.141Z,95806.53
2022-12-26T19:52:08.105Z,95808.69
2022-12-26T19:54:36.192Z,95805.41
2022-12-26T19:57:04.117Z,95802.16
2022-12-26T19:59:33.428Z,95799.75
2022-12-26T20:02:01.445Z,95794.09
2022-12-26T20:04:29.450Z,95797.31
2022-12-26T20:06:59.823Z,95811.38
2022-12-26T20:09:28.031Z,95790.56
2022-12-26T20:11:56.476Z,95799.47
2022-12-26T20:14:26.706Z,95801.94
2022-12-26T20:17:07.105Z,95797.66
2022-12-26T20:19:36.194Z,95788.22
2022-12-26T20:22:04.838Z,95785.56
2022-12-26T20:24:33.162Z,95766.41
2022-12-26T20:27:00.988Z,95767.47
2022-12-26T20:29:28.876Z,95760.44
2022-12-26T20:31:59.072Z,95765.34
2022-12-26T20:34:27.559Z,95741.00
2022-12-26T20:36:55.668Z,95748.31
2022-12-26T20:39:23.975Z,95735.63
2022-12-26T20:41:51.796Z,95741.59
2022-12-26T20:44:19.851Z,95741.84
2022-12-26T20:46:48.181Z,95747.25
2022-12-26T20:49:17.906Z,95742.66
2022-12-26T20:51:46.577Z,95753.50
2022-12-26T20:54:15.650Z,95757.28
2022-12-26T20:56:44.362Z,95772.72
2022-12-26T20:59:12.654Z,95773.53
2022-12-26T21:01:41.249Z,95775.72
2022-12-26T21:04:12.081Z,95789.25
2022-12-26T21:06:41.465Z,95800.09
2022-12-26T21:09:09.367Z,95799.78
2022-12-26T21:11:39.074Z,95816.00
2022-12-26T21:14:09.801Z,95828.69
2022-12-26T21:16:40.221Z,95846.50
2022-12-26T21:19:14.730Z,95868.34
2022-12-26T21:21:46.701Z,95885.28
2022-12-26T21:24:18.083Z,95918.19
2022-12-26T21:26:46.579Z,95931.84
2022-12-26T21:29:17.508Z,95929.66
2022-12-26T21:31:46.478Z,95960.03
2022-12-26T21:34:16.626Z,95957.47
2022-12-26T21:37:07.203Z,95960.06
2022-12-26T21:39:36.766Z,95957.47
2022-12-26T21:42:07.179Z,95967.91
2022-12-26T21:44:36.783Z,95972.72
2022-12-26T21:47:05.274Z,95977.06
2022-12-26T21:49:33.032Z,95977.31
2022-12-26T21:52:02.495Z,95980.59
2022-12-26T21:54:49.275Z,95979.75
2022-12-26T21:57:17.978Z,95994.88
2022-12-26T22:00:02.580Z,95984.34
2022-12-26T22:02:50.039Z,95990.38
2022-12-26T22:05:19.701Z,95987.69
2022-12-26T22:07:52.946Z,95982.28
2022-12-26T22:10:38.656Z,95994.22
2022-12-26T22:13:06.955Z,95993.25
2022-12-26T22:15:52.353Z,95994.88
2022-12-26T22:18:20.493Z,96000.03
2022-12-26T22:20:48.474Z,96002.28
2022-12-26T22:23:17.709Z,96001.78
2022-12-26T22:25:52.967Z,96004.31
2022-12-26T22:28:23.588Z,96006.84
2022-12-26T22:30:52.041Z,95987.75
2022-12-26T22:33:20.283Z,95987.75
2022-12-26T22:35:49.284Z,95992.09
2022-12-26T22:38:18.469Z,95985.06
2022-12-26T22:40:54.440Z,95988.09
2022-12-26T22:43:22.208Z,96001.06
2022-12-26T22:45:50.123Z,96001.31
2022-12-26T22:48:18.158Z,96002.13
2022-12-26T22:50:47.416Z,96017.84
2022-12-26T22:53:15.683Z,96013.25
2022-12-26T22:55:49.604Z,96012.13
2022-12-26T23:02:44.714Z,96008.03
2022-12-26T23:05:13.596Z,96006.41
2022-12-26T23:07:42.064Z,95995.03
2022-12-26T23:10:17.540Z,96010.56
2022-12-26T23:12:45.594Z,96004.91
2022-12-26T23:15:16.176Z,96001.94
2022-12-26T23:18:07.635Z,96022.97
2022-12-26T23:20:55.844Z,96028.38
2022-12-26T23:23:24.366Z,96019.25
2022-12-26T23:25:52.439Z,96038.66
2022-12-26T23:28:37.814Z,96040.28
2022-12-26T23:31:05.763Z,96034.16
2022-12-26T23:33:34.971Z,96045.69
2022-12-26T23:36:02.857Z,96042.38
2022-12-26T23:38:30.708Z,96056.03
2022-12-26T23:40:58.528Z,96062.25
2022-12-26T23:43:26.413Z,96059.22
2022-12-26T23:45:54.220Z,96062.72
2022-12-26T23:48:21.994Z,96060.59
2022-12-26T23:50:51.185Z,96055.69
2022-12-26T23:53:19.042Z,96059.72
2022-12-26T23:55:46.745Z,96070.59
2022-12-26T23:58:14.507Z,96064.63
